sensor_id;sensor_type;location;lat;lon;timestamp;temperature;humidity
57108;DHT22;42987;52.916;6.542;2023-05-06T00:01:39;11.60;99.90
57108;DHT22;42987;52.916;6.542;2023-05-06T00:04:08;11.60;99.90
57108;DHT22;42987;52.916;6.542;2023-05-06T00:06:34;11.50;99.90
57108;DHT22;42987;52.916;6.542;2023-05-06T00:08:59;11.40;99.90
57108;DHT22;42987;52.916;6.542;2023-05-06T00:11:25;11.40;99.90
57108;DHT22;42987;52.916;6.542;2023-05-06T00:13:51;11.40;99.90
57108;DHT22;42987;52.916;6.542;2023-05-06T00:16:17;11.30;99.90
57108;DHT22;42987;52.916;6.542;2023-05-06T00:18:43;11.30;99.90
57108;DHT22;42987;52.916;6.542;2023-05-06T00:21:09;11.30;99.90
57108;DHT22;42987;52.916;6.542;2023-05-06T00:23:34;11.30;99.90
57108;DHT22;42987;52.916;6.542;2023-05-06T00:26:03;11.20;99.90
57108;DHT22;42987;52.916;6.542;2023-05-06T00:28:29;11.20;99.90
57108;DHT22;42987;52.916;6.542;2023-05-06T00:30:55;11.20;99.90
57108;DHT22;42987;52.916;6.542;2023-05-06T00:33:21;11.20;99.90
57108;DHT22;42987;52.916;6.542;2023-05-06T00:35:47;11.20;99.90
57108;DHT22;42987;52.916;6.542;2023-05-06T00:38:13;11.20;99.90
57108;DHT22;42987;52.916;6.542;2023-05-06T00:40:44;11.20;99.90
57108;DHT22;42987;52.916;6.542;2023-05-06T00:43:10;11.10;99.90
57108;DHT22;42987;52.916;6.542;2023-05-06T00:45:36;11.10;99.90
57108;DHT22;42987;52.916;6.542;2023-05-06T00:48:04;11.00;99.90
57108;DHT22;42987;52.916;6.542;2023-05-06T00:50:32;11.00;99.90
57108;DHT22;42987;52.916;6.542;2023-05-06T00:52:59;11.00;99.90
57108;DHT22;42987;52.916;6.542;2023-05-06T00:55:27;10.90;99.90
57108;DHT22;42987;52.916;6.542;2023-05-06T00:57:53;10.90;99.90
57108;DHT22;42987;52.916;6.542;2023-05-06T01:00:19;11.00;99.90
57108;DHT22;42987;52.916;6.542;2023-05-06T01:02:48;11.00;99.90
57108;DHT22;42987;52.916;6.542;2023-05-06T01:05:16;11.00;99.90
57108;DHT22;42987;52.916;6.542;2023-05-06T01:07:55;11.00;99.90
57108;DHT22;42987;52.916;6.542;2023-05-06T01:13:13;11.00;99.90
57108;DHT22;42987;52.916;6.542;2023-05-06T01:15:52;11.00;99.90
57108;DHT22;42987;52.916;6.542;2023-05-06T01:18:24;10.90;99.90
57108;DHT22;42987;52.916;6.542;2023-05-06T01:20:54;10.90;99.90
57108;DHT22;42987;52.916;6.542;2023-05-06T01:23:21;10.90;99.90
57108;DHT22;42987;52.916;6.542;2023-05-06T01:25:47;10.90;99.90
57108;DHT22;42987;52.916;6.542;2023-05-06T01:28:13;10.90;99.90
57108;DHT22;42987;52.916;6.542;2023-05-06T01:39:24;10.70;99.90
57108;DHT22;42987;52.916;6.542;2023-05-06T01:41:55;10.70;99.90
57108;DHT22;42987;52.916;6.542;2023-05-06T01:44:22;10.70;99.90
57108;DHT22;42987;52.916;6.542;2023-05-06T01:46:49;10.70;99.90
57108;DHT22;42987;52.916;6.542;2023-05-06T01:49:19;10.60;99.90
57108;DHT22;42987;52.916;6.542;2023-05-06T01:51:47;10.60;99.90
57108;DHT22;42987;52.916;6.542;2023-05-06T01:54:13;10.70;99.90
57108;DHT22;42987;52.916;6.542;2023-05-06T01:56:39;10.60;99.90
57108;DHT22;42987;52.916;6.542;2023-05-06T01:59:05;10.70;99.90
57108;DHT22;42987;52.916;6.542;2023-05-06T02:01:31;10.70;99.90
57108;DHT22;42987;52.916;6.542;2023-05-06T02:03:56;10.70;99.90
57108;DHT22;42987;52.916;6.542;2023-05-06T02:06:22;10.60;99.90
57108;DHT22;42987;52.916;6.542;2023-05-06T02:08:48;10.60;99.90
57108;DHT22;42987;52.916;6.542;2023-05-06T02:11:15;10.60;99.90
57108;DHT22;42987;52.916;6.542;2023-05-06T02:13:41;10.70;99.90
57108;DHT22;42987;52.916;6.542;2023-05-06T02:16:06;10.70;99.90
57108;DHT22;42987;52.916;6.542;2023-05-06T02:18:33;10.70;99.90
57108;DHT22;42987;52.916;6.542;2023-05-06T02:21:00;10.70;99.90
57108;DHT22;42987;52.916;6.542;2023-05-06T02:23:26;10.70;99.90
57108;DHT22;42987;52.916;6.542;2023-05-06T02:25:52;10.70;99.90
57108;DHT22;42987;52.916;6.542;2023-05-06T02:28:17;10.80;99.90
57108;DHT22;42987;52.916;6.542;2023-05-06T02:30:43;10.70;99.90
57108;DHT22;42987;52.916;6.542;2023-05-06T02:33:09;10.70;99.90
57108;DHT22;42987;52.916;6.542;2023-05-06T02:35:35;10.70;99.90
57108;DHT22;42987;52.916;6.542;2023-05-06T02:38:01;10.70;99.90
57108;DHT22;42987;52.916;6.542;2023-05-06T02:40:27;10.70;99.90
57108;DHT22;42987;52.916;6.542;2023-05-06T02:42:52;10.70;99.90
57108;DHT22;42987;52.916;6.542;2023-05-06T02:45:18;10.70;99.90
57108;DHT22;42987;52.916;6.542;2023-05-06T02:47:44;10.70;99.90
57108;DHT22;42987;52.916;6.542;2023-05-06T02:50:10;10.70;99.90
57108;DHT22;42987;52.916;6.542;2023-05-06T02:52:36;10.70;99.90
57108;DHT22;42987;52.916;6.542;2023-05-06T02:55:02;10.70;99.90
57108;DHT22;42987;52.916;6.542;2023-05-06T02:57:27;10.70;99.90
57108;DHT22;42987;52.916;6.542;2023-05-06T02:59:53;10.70;99.90
57108;DHT22;42987;52.916;6.542;2023-05-06T03:02:19;10.70;99.90
57108;DHT22;42987;52.916;6.542;2023-05-06T03:04:47;10.70;99.90
57108;DHT22;42987;52.916;6.542;2023-05-06T03:07:13;10.70;99.90
57108;DHT22;42987;52.916;6.542;2023-05-06T03:09:39;10.70;99.90
57108;DHT22;42987;52.916;6.542;2023-05-06T03:12:05;10.60;99.90
57108;DHT22;42987;52.916;6.542;2023-05-06T03:14:34;10.70;99.90
57108;DHT22;42987;52.916;6.542;2023-05-06T03:17:00;10.60;99.90
57108;DHT22;42987;52.916;6.542;2023-05-06T03:19:28;10.60;99.90
57108;DHT22;42987;52.916;6.542;2023-05-06T03:21:54;10.60;99.90
57108;DHT22;42987;52.916;6.542;2023-05-06T03:24:24;10.50;99.90
57108;DHT22;42987;52.916;6.542;2023-05-06T03:26:49;10.50;99.90
57108;DHT22;42987;52.916;6.542;2023-05-06T03:29:18;10.40;99.90
57108;DHT22;42987;52.916;6.542;2023-05-06T03:31:44;10.30;99.90
57108;DHT22;42987;52.916;6.542;2023-05-06T03:34:13;10.30;99.90
57108;DHT22;42987;52.916;6.542;2023-05-06T03:36:38;10.20;99.90
57108;DHT22;42987;52.916;6.542;2023-05-06T03:39:04;10.20;99.90
57108;DHT22;42987;52.916;6.542;2023-05-06T03:41:30;10.20;99.90
57108;DHT22;42987;52.916;6.542;2023-05-06T03:43:56;10.10;99.90
57108;DHT22;42987;52.916;6.542;2023-05-06T03:46:22;10.20;99.90
57108;DHT22;42987;52.916;6.542;2023-05-06T03:48:48;10.20;99.90
57108;DHT22;42987;52.916;6.542;2023-05-06T03:51:13;10.20;99.90
57108;DHT22;42987;52.916;6.542;2023-05-06T03:53:39;10.20;99.90
57108;DHT22;42987;52.916;6.542;2023-05-06T03:56:06;10.20;99.90
57108;DHT22;42987;52.916;6.542;2023-05-06T03:58:34;10.20;99.90
57108;DHT22;42987;52.916;6.542;2023-05-06T04:01:00;10.20;99.90
57108;DHT22;42987;52.916;6.542;2023-05-06T04:03:26;10.20;99.90
57108;DHT22;42987;52.916;6.542;2023-05-06T04:05:52;10.20;99.90
57108;DHT22;42987;52.916;6.542;2023-05-06T04:08:18;10.10;99.90
57108;DHT22;42987;52.916;6.542;2023-05-06T04:10:44;10.10;99.90
57108;DHT22;42987;52.916;6.542;2023-05-06T04:13:10;10.10;99.90
57108;DHT22;42987;52.916;6.542;2023-05-06T04:15:35;10.10;99.90
57108;DHT22;42987;52.916;6.542;2023-05-06T04:18:02;10.10;99.90
57108;DHT22;42987;52.916;6.542;2023-05-06T04:20:28;10.10;99.90
57108;DHT22;42987;52.916;6.542;2023-05-06T04:22:53;10.10;99.90
57108;DHT22;42987;52.916;6.542;2023-05-06T04:25:19;10.20;99.90
57108;DHT22;42987;52.916;6.542;2023-05-06T04:27:46;10.20;99.90
57108;DHT22;42987;52.916;6.542;2023-05-06T04:30:12;10.20;99.90
57108;DHT22;42987;52.916;6.542;2023-05-06T04:32:38;10.20;99.90
57108;DHT22;42987;52.916;6.542;2023-05-06T04:35:05;10.20;99.90
57108;DHT22;42987;52.916;6.542;2023-05-06T04:37:34;10.30;99.90
57108;DHT22;42987;52.916;6.542;2023-05-06T04:40:01;10.30;99.90
57108;DHT22;42987;52.916;6.542;2023-05-06T04:42:27;10.30;99.90
57108;DHT22;42987;52.916;6.542;2023-05-06T04:44:53;10.30;99.90
57108;DHT22;42987;52.916;6.542;2023-05-06T04:47:18;10.40;99.90
57108;DHT22;42987;52.916;6.542;2023-05-06T04:49:47;10.30;99.90
57108;DHT22;42987;52.916;6.542;2023-05-06T04:52:13;10.40;99.90
57108;DHT22;42987;52.916;6.542;2023-05-06T04:54:42;10.40;99.90
57108;DHT22;42987;52.916;6.542;2023-05-06T04:57:07;10.40;99.90
57108;DHT22;42987;52.916;6.542;2023-05-06T04:59:33;10.40;99.90
57108;DHT22;42987;52.916;6.542;2023-05-06T05:01:59;10.30;99.90
57108;DHT22;42987;52.916;6.542;2023-05-06T05:04:25;10.40;99.90
57108;DHT22;42987;52.916;6.542;2023-05-06T05:06:51;10.40;99.90
57108;DHT22;42987;52.916;6.542;2023-05-06T05:09:17;10.40;99.90
57108;DHT22;42987;52.916;6.542;2023-05-06T05:11:43;10.40;99.90
57108;DHT22;42987;52.916;6.542;2023-05-06T05:14:08;10.50;99.90
57108;DHT22;42987;52.916;6.542;2023-05-06T05:16:34;10.50;99.90
57108;DHT22;42987;52.916;6.542;2023-05-06T05:19:00;10.60;99.90
57108;DHT22;42987;52.916;6.542;2023-05-06T05:21:26;10.60;99.90
57108;DHT22;42987;52.916;6.542;2023-05-06T05:23:52;10.70;99.90
57108;DHT22;42987;52.916;6.542;2023-05-06T05:26:17;10.80;99.90
57108;DHT22;42987;52.916;6.542;2023-05-06T05:28:46;10.90;99.90
57108;DHT22;42987;52.916;6.542;2023-05-06T05:31:12;10.90;99.90
57108;DHT22;42987;52.916;6.542;2023-05-06T05:33:38;10.90;99.90
57108;DHT22;42987;52.916;6.542;2023-05-06T05:36:04;11.00;99.90
57108;DHT22;42987;52.916;6.542;2023-05-06T05:38:30;11.10;99.90
57108;DHT22;42987;52.916;6.542;2023-05-06T05:40:55;11.20;99.90
57108;DHT22;42987;52.916;6.542;2023-05-06T05:43:21;11.20;99.90
57108;DHT22;42987;52.916;6.542;2023-05-06T05:45:53;11.30;99.90
57108;DHT22;42987;52.916;6.542;2023-05-06T05:48:18;11.30;99.90
57108;DHT22;42987;52.916;6.542;2023-05-06T05:50:45;11.40;99.90
57108;DHT22;42987;52.916;6.542;2023-05-06T05:53:10;11.50;99.90
57108;DHT22;42987;52.916;6.542;2023-05-06T05:55:36;11.50;99.90
57108;DHT22;42987;52.916;6.542;2023-05-06T05:58:02;11.60;99.90
57108;DHT22;42987;52.916;6.542;2023-05-06T06:00:27;11.70;99.90
57108;DHT22;42987;52.916;6.542;2023-05-06T06:02:53;11.80;99.90
57108;DHT22;42987;52.916;6.542;2023-05-06T06:05:19;11.90;99.90
57108;DHT22;42987;52.916;6.542;2023-05-06T06:07:45;12.00;99.90
57108;DHT22;42987;52.916;6.542;2023-05-06T06:10:11;12.10;99.90
57108;DHT22;42987;52.916;6.542;2023-05-06T06:12:38;12.30;99.90
57108;DHT22;42987;52.916;6.542;2023-05-06T06:15:04;12.40;99.90
57108;DHT22;42987;52.916;6.542;2023-05-06T06:17:30;12.50;99.90
57108;DHT22;42987;52.916;6.542;2023-05-06T06:19:57;12.60;99.90
57108;DHT22;42987;52.916;6.542;2023-05-06T06:22:23;12.60;99.90
57108;DHT22;42987;52.916;6.542;2023-05-06T06:24:50;12.70;99.90
57108;DHT22;42987;52.916;6.542;2023-05-06T06:27:18;12.70;99.90
57108;DHT22;42987;52.916;6.542;2023-05-06T06:29:47;12.80;99.90
57108;DHT22;42987;52.916;6.542;2023-05-06T06:32:13;12.80;99.90
57108;DHT22;42987;52.916;6.542;2023-05-06T06:34:39;12.80;99.90
57108;DHT22;42987;52.916;6.542;2023-05-06T06:37:05;12.80;99.90
57108;DHT22;42987;52.916;6.542;2023-05-06T06:39:31;12.90;99.90
57108;DHT22;42987;52.916;6.542;2023-05-06T06:41:57;12.80;99.90
57108;DHT22;42987;52.916;6.542;2023-05-06T06:44:23;12.80;99.90
57108;DHT22;42987;52.916;6.542;2023-05-06T06:46:48;12.80;99.90
57108;DHT22;42987;52.916;6.542;2023-05-06T06:49:15;12.80;99.90
57108;DHT22;42987;52.916;6.542;2023-05-06T06:51:40;12.80;99.90
57108;DHT22;42987;52.916;6.542;2023-05-06T06:54:06;12.80;99.90
57108;DHT22;42987;52.916;6.542;2023-05-06T06:56:32;12.80;99.90
57108;DHT22;42987;52.916;6.542;2023-05-06T06:58:58;12.80;99.90
57108;DHT22;42987;52.916;6.542;2023-05-06T07:01:24;12.90;99.90
57108;DHT22;42987;52.916;6.542;2023-05-06T07:03:50;12.90;99.90
57108;DHT22;42987;52.916;6.542;2023-05-06T07:06:19;13.00;99.90
57108;DHT22;42987;52.916;6.542;2023-05-06T07:08:44;13.00;99.90
57108;DHT22;42987;52.916;6.542;2023-05-06T07:11:10;13.00;99.90
57108;DHT22;42987;52.916;6.542;2023-05-06T07:13:36;13.10;99.90
57108;DHT22;42987;52.916;6.542;2023-05-06T07:16:02;13.10;99.90
57108;DHT22;42987;52.916;6.542;2023-05-06T07:18:28;13.10;99.90
57108;DHT22;42987;52.916;6.542;2023-05-06T07:20:54;13.10;99.90
57108;DHT22;42987;52.916;6.542;2023-05-06T07:23:20;13.10;99.90
57108;DHT22;42987;52.916;6.542;2023-05-06T07:25:48;13.10;99.90
57108;DHT22;42987;52.916;6.542;2023-05-06T07:28:14;13.10;99.90
57108;DHT22;42987;52.916;6.542;2023-05-06T07:30:40;13.20;99.90
57108;DHT22;42987;52.916;6.542;2023-05-06T07:33:06;13.10;99.90
57108;DHT22;42987;52.916;6.542;2023-05-06T07:35:32;13.20;99.90
57108;DHT22;42987;52.916;6.542;2023-05-06T07:37:58;13.30;99.90
57108;DHT22;42987;52.916;6.542;2023-05-06T07:40:23;13.40;99.90
57108;DHT22;42987;52.916;6.542;2023-05-06T07:42:49;13.50;99.90
57108;DHT22;42987;52.916;6.542;2023-05-06T07:45:15;13.70;99.90
57108;DHT22;42987;52.916;6.542;2023-05-06T07:47:41;13.80;99.90
57108;DHT22;42987;52.916;6.542;2023-05-06T07:50:07;14.10;99.90
57108;DHT22;42987;52.916;6.542;2023-05-06T07:52:33;14.30;99.90
57108;DHT22;42987;52.916;6.542;2023-05-06T07:54:59;14.50;99.90
57108;DHT22;42987;52.916;6.542;2023-05-06T07:57:25;14.70;99.90
57108;DHT22;42987;52.916;6.542;2023-05-06T07:59:54;14.90;99.90
57108;DHT22;42987;52.916;6.542;2023-05-06T08:02:23;15.10;99.90
57108;DHT22;42987;52.916;6.542;2023-05-06T08:04:48;15.30;99.90
57108;DHT22;42987;52.916;6.542;2023-05-06T08:07:14;15.50;99.90
57108;DHT22;42987;52.916;6.542;2023-05-06T08:09:40;15.60;99.90
57108;DHT22;42987;52.916;6.542;2023-05-06T08:12:06;15.60;99.90
57108;DHT22;42987;52.916;6.542;2023-05-06T08:14:32;15.60;99.90
57108;DHT22;42987;52.916;6.542;2023-05-06T08:16:57;15.50;99.90
57108;DHT22;42987;52.916;6.542;2023-05-06T08:19:26;15.50;99.90
57108;DHT22;42987;52.916;6.542;2023-05-06T08:21:52;15.60;99.90
57108;DHT22;42987;52.916;6.542;2023-05-06T08:24:17;15.80;99.90
57108;DHT22;42987;52.916;6.542;2023-05-06T08:26:43;16.00;99.90
57108;DHT22;42987;52.916;6.542;2023-05-06T08:29:09;16.10;99.90
57108;DHT22;42987;52.916;6.542;2023-05-06T08:31:34;16.20;99.90
57108;DHT22;42987;52.916;6.542;2023-05-06T08:34:00;16.40;99.90
57108;DHT22;42987;52.916;6.542;2023-05-06T08:36:26;16.50;99.90
57108;DHT22;42987;52.916;6.542;2023-05-06T08:38:52;16.60;99.90
57108;DHT22;42987;52.916;6.542;2023-05-06T08:41:19;16.70;99.90
57108;DHT22;42987;52.916;6.542;2023-05-06T08:43:49;16.80;99.90
57108;DHT22;42987;52.916;6.542;2023-05-06T08:46:16;16.90;99.90
57108;DHT22;42987;52.916;6.542;2023-05-06T08:48:42;17.00;99.90
57108;DHT22;42987;52.916;6.542;2023-05-06T08:51:08;17.00;99.90
57108;DHT22;42987;52.916;6.542;2023-05-06T08:53:34;17.20;99.90
57108;DHT22;42987;52.916;6.542;2023-05-06T08:56:02;17.30;99.90
57108;DHT22;42987;52.916;6.542;2023-05-06T08:58:32;17.40;99.90
57108;DHT22;42987;52.916;6.542;2023-05-06T09:01:00;17.50;99.90
57108;DHT22;42987;52.916;6.542;2023-05-06T09:03:27;17.60;99.90
57108;DHT22;42987;52.916;6.542;2023-05-06T09:05:52;17.80;99.90
57108;DHT22;42987;52.916;6.542;2023-05-06T09:08:19;17.80;99.90
57108;DHT22;42987;52.916;6.542;2023-05-06T09:10:48;17.90;99.90
57108;DHT22;42987;52.916;6.542;2023-05-06T09:13:15;18.00;99.90
57108;DHT22;42987;52.916;6.542;2023-05-06T09:15:47;18.10;99.90
57108;DHT22;42987;52.916;6.542;2023-05-06T09:18:13;18.20;99.90
57108;DHT22;42987;52.916;6.542;2023-05-06T09:20:44;18.30;99.90
57108;DHT22;42987;52.916;6.542;2023-05-06T09:23:12;18.40;99.90
57108;DHT22;42987;52.916;6.542;2023-05-06T09:25:38;18.40;99.90
57108;DHT22;42987;52.916;6.542;2023-05-06T09:28:06;18.50;99.90
57108;DHT22;42987;52.916;6.542;2023-05-06T09:30:32;18.60;99.90
57108;DHT22;42987;52.916;6.542;2023-05-06T09:32:58;18.60;99.90
57108;DHT22;42987;52.916;6.542;2023-05-06T09:35:28;18.60;99.90
57108;DHT22;42987;52.916;6.542;2023-05-06T09:37:54;18.60;99.90
57108;DHT22;42987;52.916;6.542;2023-05-06T09:40:24;18.70;99.90
57108;DHT22;42987;52.916;6.542;2023-05-06T09:42:50;18.70;99.90
57108;DHT22;42987;52.916;6.542;2023-05-06T09:45:16;18.60;99.90
57108;DHT22;42987;52.916;6.542;2023-05-06T09:47:42;18.70;99.90
57108;DHT22;42987;52.916;6.542;2023-05-06T09:50:09;18.70;99.90
57108;DHT22;42987;52.916;6.542;2023-05-06T09:52:38;18.80;99.90
57108;DHT22;42987;52.916;6.542;2023-05-06T09:55:05;18.80;99.90
57108;DHT22;42987;52.916;6.542;2023-05-06T09:57:33;18.90;99.90
57108;DHT22;42987;52.916;6.542;2023-05-06T10:00:01;18.90;99.90
57108;DHT22;42987;52.916;6.542;2023-05-06T10:02:27;18.90;99.90
57108;DHT22;42987;52.916;6.542;2023-05-06T10:04:53;18.90;99.90
57108;DHT22;42987;52.916;6.542;2023-05-06T10:07:24;19.00;99.90
57108;DHT22;42987;52.916;6.542;2023-05-06T10:09:53;19.00;99.90
57108;DHT22;42987;52.916;6.542;2023-05-06T10:12:21;19.00;99.90
57108;DHT22;42987;52.916;6.542;2023-05-06T10:14:47;18.90;99.90
57108;DHT22;42987;52.916;6.542;2023-05-06T10:17:13;18.90;99.90
57108;DHT22;42987;52.916;6.542;2023-05-06T10:19:43;18.80;99.90
57108;DHT22;42987;52.916;6.542;2023-05-06T10:22:40;18.90;99.90
57108;DHT22;42987;52.916;6.542;2023-05-06T10:27:52;19.30;99.90
57108;DHT22;42987;52.916;6.542;2023-05-06T10:30:18;19.50;99.90
57108;DHT22;42987;52.916;6.542;2023-05-06T10:32:45;19.60;99.90
57108;DHT22;42987;52.916;6.542;2023-05-06T10:37:57;19.90;99.90
57108;DHT22;42987;52.916;6.542;2023-05-06T10:40:24;20.00;99.90
57108;DHT22;42987;52.916;6.542;2023-05-06T10:42:50;19.90;99.90
57108;DHT22;42987;52.916;6.542;2023-05-06T10:45:16;19.90;99.90
57108;DHT22;42987;52.916;6.542;2023-05-06T10:50:29;19.60;99.90
57108;DHT22;42987;52.916;6.542;2023-05-06T10:52:57;19.30;99.90
57108;DHT22;42987;52.916;6.542;2023-05-06T10:55:30;19.00;99.90
57108;DHT22;42987;52.916;6.542;2023-05-06T11:00:35;18.70;99.90
57108;DHT22;42987;52.916;6.542;2023-05-06T11:03:10;18.60;99.90
57108;DHT22;42987;52.916;6.542;2023-05-06T11:05:49;18.50;99.90
57108;DHT22;42987;52.916;6.542;2023-05-06T11:08:23;18.40;99.90
57108;DHT22;42987;52.916;6.542;2023-05-06T11:10:49;18.30;99.90
57108;DHT22;42987;52.916;6.542;2023-05-06T11:13:28;18.20;99.90
57108;DHT22;42987;52.916;6.542;2023-05-06T11:15:59;18.30;99.90
57108;DHT22;42987;52.916;6.542;2023-05-06T11:26:14;18.30;99.90
57108;DHT22;42987;52.916;6.542;2023-05-06T11:28:48;18.40;99.90
57108;DHT22;42987;52.916;6.542;2023-05-06T11:31:14;18.50;99.90
57108;DHT22;42987;52.916;6.542;2023-05-06T11:33:47;18.70;99.90
57108;DHT22;42987;52.916;6.542;2023-05-06T11:36:18;18.90;99.90
57108;DHT22;42987;52.916;6.542;2023-05-06T11:38:51;19.00;99.90
57108;DHT22;42987;52.916;6.542;2023-05-06T11:41:17;19.10;99.90
57108;DHT22;42987;52.916;6.542;2023-05-06T11:43:53;19.20;99.90
57108;DHT22;42987;52.916;6.542;2023-05-06T11:46:20;19.20;99.90
57108;DHT22;42987;52.916;6.542;2023-05-06T11:48:47;19.30;99.90
57108;DHT22;42987;52.916;6.542;2023-05-06T11:51:14;19.30;99.90
57108;DHT22;42987;52.916;6.542;2023-05-06T11:53:40;19.30;99.90
57108;DHT22;42987;52.916;6.542;2023-05-06T11:56:06;19.30;99.90
57108;DHT22;42987;52.916;6.542;2023-05-06T11:58:32;19.30;99.90
57108;DHT22;42987;52.916;6.542;2023-05-06T12:01:00;19.30;99.90
57108;DHT22;42987;52.916;6.542;2023-05-06T12:03:27;19.30;99.90
57108;DHT22;42987;52.916;6.542;2023-05-06T12:05:54;19.20;99.90
57108;DHT22;42987;52.916;6.542;2023-05-06T12:08:33;19.10;99.90
57108;DHT22;42987;52.916;6.542;2023-05-06T12:11:02;19.00;99.90
57108;DHT22;42987;52.916;6.542;2023-05-06T12:13:29;18.90;99.90
57108;DHT22;42987;52.916;6.542;2023-05-06T12:15:57;18.90;99.90
57108;DHT22;42987;52.916;6.542;2023-05-06T12:18:23;18.80;99.90
57108;DHT22;42987;52.916;6.542;2023-05-06T12:21:00;18.70;99.90
57108;DHT22;42987;52.916;6.542;2023-05-06T12:23:26;18.70;99.90
57108;DHT22;42987;52.916;6.542;2023-05-06T12:26:03;18.70;99.90
57108;DHT22;42987;52.916;6.542;2023-05-06T12:28:35;18.70;99.90
57108;DHT22;42987;52.916;6.542;2023-05-06T12:31:20;18.70;99.90
57108;DHT22;42987;52.916;6.542;2023-05-06T12:33:47;18.60;99.90
57108;DHT22;42987;52.916;6.542;2023-05-06T12:36:16;18.50;99.90
57108;DHT22;42987;52.916;6.542;2023-05-06T12:38:59;18.60;99.90
57108;DHT22;42987;52.916;6.542;2023-05-06T12:41:45;18.50;99.90
57108;DHT22;42987;52.916;6.542;2023-05-06T12:44:38;18.60;99.90
57108;DHT22;42987;52.916;6.542;2023-05-06T12:47:05;18.70;99.90
57108;DHT22;42987;52.916;6.542;2023-05-06T12:52:12;18.70;99.90
57108;DHT22;42987;52.916;6.542;2023-05-06T12:54:39;18.70;99.90
57108;DHT22;42987;52.916;6.542;2023-05-06T12:57:05;18.90;99.90
57108;DHT22;42987;52.916;6.542;2023-05-06T12:59:38;19.10;99.90
57108;DHT22;42987;52.916;6.542;2023-05-06T13:02:05;19.30;99.90
57108;DHT22;42987;52.916;6.542;2023-05-06T13:04:30;19.50;99.90
57108;DHT22;42987;52.916;6.542;2023-05-06T13:06:56;19.60;99.90
57108;DHT22;42987;52.916;6.542;2023-05-06T13:09:23;19.60;99.90
57108;DHT22;42987;52.916;6.542;2023-05-06T13:11:50;19.50;99.90
57108;DHT22;42987;52.916;6.542;2023-05-06T13:14:16;19.50;99.90
57108;DHT22;42987;52.916;6.542;2023-05-06T13:16:42;19.50;99.90
57108;DHT22;42987;52.916;6.542;2023-05-06T13:19:09;19.40;99.90
57108;DHT22;42987;52.916;6.542;2023-05-06T13:21:36;19.40;99.90
57108;DHT22;42987;52.916;6.542;2023-05-06T13:24:03;19.30;99.90
57108;DHT22;42987;52.916;6.542;2023-05-06T13:26:31;19.20;99.90
57108;DHT22;42987;52.916;6.542;2023-05-06T13:28:57;19.10;99.90
57108;DHT22;42987;52.916;6.542;2023-05-06T13:31:22;19.00;99.90
57108;DHT22;42987;52.916;6.542;2023-05-06T13:33:50;18.70;99.90
57108;DHT22;42987;52.916;6.542;2023-05-06T13:36:16;18.50;99.90
57108;DHT22;42987;52.916;6.542;2023-05-06T13:38:42;18.20;99.90
57108;DHT22;42987;52.916;6.542;2023-05-06T13:41:08;17.90;99.90
57108;DHT22;42987;52.916;6.542;2023-05-06T13:43:33;17.70;99.90
57108;DHT22;42987;52.916;6.542;2023-05-06T13:45:59;17.50;99.90
57108;DHT22;42987;52.916;6.542;2023-05-06T13:48:25;17.20;99.90
57108;DHT22;42987;52.916;6.542;2023-05-06T13:50:51;17.10;99.90
57108;DHT22;42987;52.916;6.542;2023-05-06T13:53:17;16.90;99.90
57108;DHT22;42987;52.916;6.542;2023-05-06T13:55:42;16.80;99.90
57108;DHT22;42987;52.916;6.542;2023-05-06T13:58:08;16.70;99.90
57108;DHT22;42987;52.916;6.542;2023-05-06T14:00:34;16.60;99.90
57108;DHT22;42987;52.916;6.542;2023-05-06T14:03:00;16.50;99.90
57108;DHT22;42987;52.916;6.542;2023-05-06T14:05:27;16.40;99.90
57108;DHT22;42987;52.916;6.542;2023-05-06T14:07:53;16.30;99.90
57108;DHT22;42987;52.916;6.542;2023-05-06T14:10:19;16.20;99.90
57108;DHT22;42987;52.916;6.542;2023-05-06T14:12:45;16.10;99.90
57108;DHT22;42987;52.916;6.542;2023-05-06T14:15:11;16.00;99.90
57108;DHT22;42987;52.916;6.542;2023-05-06T14:17:39;15.80;99.90
57108;DHT22;42987;52.916;6.542;2023-05-06T14:20:06;15.60;99.90
57108;DHT22;42987;52.916;6.542;2023-05-06T14:22:33;15.50;99.90
57108;DHT22;42987;52.916;6.542;2023-05-06T14:25:02;15.40;99.90
57108;DHT22;42987;52.916;6.542;2023-05-06T14:27:28;15.40;99.90
57108;DHT22;42987;52.916;6.542;2023-05-06T14:29:54;15.40;99.90
57108;DHT22;42987;52.916;6.542;2023-05-06T14:32:19;15.30;99.90
57108;DHT22;42987;52.916;6.542;2023-05-06T14:34:45;15.20;99.90
57108;DHT22;42987;52.916;6.542;2023-05-06T14:37:11;15.10;99.90
57108;DHT22;42987;52.916;6.542;2023-05-06T14:39:37;15.00;99.90
57108;DHT22;42987;52.916;6.542;2023-05-06T14:42:02;15.00;99.90
57108;DHT22;42987;52.916;6.542;2023-05-06T14:44:28;14.90;99.90
57108;DHT22;42987;52.916;6.542;2023-05-06T14:46:54;14.80;99.90
57108;DHT22;42987;52.916;6.542;2023-05-06T14:49:23;14.80;99.90
57108;DHT22;42987;52.916;6.542;2023-05-06T14:51:49;14.70;99.90
57108;DHT22;42987;52.916;6.542;2023-05-06T14:54:15;14.70;99.90
57108;DHT22;42987;52.916;6.542;2023-05-06T14:56:45;14.70;99.90
57108;DHT22;42987;52.916;6.542;2023-05-06T14:59:14;14.70;99.90
57108;DHT22;42987;52.916;6.542;2023-05-06T15:01:39;14.70;99.90
57108;DHT22;42987;52.916;6.542;2023-05-06T15:04:07;14.60;99.90
57108;DHT22;42987;52.916;6.542;2023-05-06T15:06:35;14.60;99.90
57108;DHT22;42987;52.916;6.542;2023-05-06T15:09:01;14.60;99.90
57108;DHT22;42987;52.916;6.542;2023-05-06T15:11:27;14.60;99.90
57108;DHT22;42987;52.916;6.542;2023-05-06T15:13:54;14.40;99.90
57108;DHT22;42987;52.916;6.542;2023-05-06T15:16:23;14.50;99.90
57108;DHT22;42987;52.916;6.542;2023-05-06T15:18:52;14.50;99.90
57108;DHT22;42987;52.916;6.542;2023-05-06T15:21:18;14.50;99.90
57108;DHT22;42987;52.916;6.542;2023-05-06T15:23:45;14.60;99.90
57108;DHT22;42987;52.916;6.542;2023-05-06T15:26:12;14.80;99.90
57108;DHT22;42987;52.916;6.542;2023-05-06T15:28:38;15.10;99.90
57108;DHT22;42987;52.916;6.542;2023-05-06T15:31:03;15.20;99.90
57108;DHT22;42987;52.916;6.542;2023-05-06T15:33:33;15.30;99.90
57108;DHT22;42987;52.916;6.542;2023-05-06T15:35:59;15.50;99.90
57108;DHT22;42987;52.916;6.542;2023-05-06T15:38:25;15.60;99.90
57108;DHT22;42987;52.916;6.542;2023-05-06T15:40:51;15.60;99.90
57108;DHT22;42987;52.916;6.542;2023-05-06T15:43:18;15.60;99.90
57108;DHT22;42987;52.916;6.542;2023-05-06T15:45:44;15.70;99.90
57108;DHT22;42987;52.916;6.542;2023-05-06T15:48:09;15.70;99.90
57108;DHT22;42987;52.916;6.542;2023-05-06T15:50:36;15.70;99.90
57108;DHT22;42987;52.916;6.542;2023-05-06T15:53:02;15.70;99.90
57108;DHT22;42987;52.916;6.542;2023-05-06T15:55:27;15.70;99.90
57108;DHT22;42987;52.916;6.542;2023-05-06T15:57:53;15.70;99.90
57108;DHT22;42987;52.916;6.542;2023-05-06T16:00:20;15.70;99.90
57108;DHT22;42987;52.916;6.542;2023-05-06T16:02:46;15.70;99.90